Time;durP1;ratioP1;P1;durP2;ratioP2;P2;SDS_P1;SDS_P2;PMS_P1;PMS_P2;Temp;Humidity;BMP_temperature;BMP_pressure;BME280_temperature;BME280_humidity;BME280_pressure;Samples;Min_cycle;Max_cycle;Signal;HPM_P1;HPM_P2
2022/05/08 00:01:02;;;;;;;21.8;24.4;;;;;;;-133;90.3;65220;;;;
2022/05/08 00:11:02;;;;;;;21.8;24.4;;;;;;;-133;90;65210;;;;
2022/05/08 00:22:02;;;;;;;21.8;24.4;;;;;;;-133;89.7;65220;;;;
2022/05/08 00:32:02;;;;;;;21.4;24.5;;;;;;;-133;89.9;65220;;;;
2022/05/08 00:43:02;;;;;;;21.4;24.5;;;;;;;-133;90.4;65220;;;;
2022/05/08 00:53:02;;;;;;;21.4;24.5;;;;;;;-133;91.2;65210;;;;
2022/05/08 01:04:02;;;;;;;21.6;24;;;;;;;-133;91;65210;;;;
2022/05/08 01:14:02;;;;;;;21.6;24;;;;;;;-133;91.7;65210;;;;
2022/05/08 01:25:02;;;;;;;21.6;24;;;;;;;-133;92.1;65210;;;;
2022/05/08 01:35:02;;;;;;;20.9;25.4;;;;;;;-133;92.1;65210;;;;
2022/05/08 01:46:02;;;;;;;20.9;25.4;;;;;;;-133;92.9;65210;;;;
2022/05/08 01:56:04;;;;;;;20.9;25.4;;;;;;;-133;93.9;65210;;;;
2022/05/08 02:07:02;;;;;;;23;30.5;;;;;;;-133;93.2;65210;;;;
2022/05/08 02:17:02;;;;;;;23;30.5;;;;;;;-133;93.4;65210;;;;
2022/05/08 02:28:02;;;;;;;23;30.5;;;;;;;-133;93.6;65210;;;;
2022/05/08 02:39:02;;;;;;;22.1;24.8;;;;;;;-133;92.8;65210;;;;
2022/05/08 02:49:02;;;;;;;22.1;24.8;;;;;;;-133;93.2;65210;;;;
2022/05/08 03:00:02;;;;;;;20.7;23.7;;;;;;;-133;94;65210;;;;
2022/05/08 03:11:36;;;;;;;20.7;23.7;;;;;;;-133;93.8;65210;;;;
2022/05/08 03:21:02;;;;;;;20.7;23.7;;;;;;;-133;94;65210;;;;
2022/05/08 03:32:03;;;;;;;19;21.7;;;;;;;-133;94.8;65210;;;;
2022/05/08 03:42:02;;;;;;;19;21.7;;;;;;;-133;94.4;65210;;;;
2022/05/08 03:52:04;;;;;;;19;21.7;;;;;;;-133;93.8;65210;;;;
2022/05/08 04:02:02;;;;;;;19.9;24.1;;;;;;;-133;93;65210;;;;
2022/05/08 04:12:02;;;;;;;19.9;24.1;;;;;;;-133;92.6;65210;;;;
2022/05/08 04:33:02;;;;;;;18.3;21.9;;;;;;;-133;92.6;65210;;;;
2022/05/08 04:43:02;;;;;;;18.3;21.9;;;;;;;-133;94.2;65210;;;;
2022/05/08 04:53:02;;;;;;;18.3;21.9;;;;;;;-133;93.2;65210;;;;
2022/05/08 05:04:02;;;;;;;18.1;20.3;;;;;;;-133;92.5;65210;;;;
2022/05/08 05:15:03;;;;;;;18.1;20.3;;;;;;;-133;91.8;65210;;;;
2022/05/08 05:25:03;;;;;;;18.1;20.3;;;;;;;-133;91.8;65210;;;;
2022/05/08 05:36:02;;;;;;;15.6;18.1;;;;;;;-133;91.3;65210;;;;
2022/05/08 05:48:07;;;;;;;15.6;18.1;;;;;;;-133;90.5;65210;;;;
2022/05/08 05:57:02;;;;;;;15.6;18.1;;;;;;;-133;89.6;65200;;;;
2022/05/08 06:07:02;;;;;;;15.2;18.8;;;;;;;-133;89.1;65210;;;;
2022/05/08 06:18:02;;;;;;;15.2;18.8;;;;;;;-133;88.3;65200;;;;
2022/05/08 06:28:02;;;;;;;16.2;19.4;;;;;;;-133;87.1;65210;;;;
2022/05/08 06:39:02;;;;;;;16.2;19.4;;;;;;;-133;85.7;65200;;;;
2022/05/08 06:49:02;;;;;;;16.2;19.4;;;;;;;-133;84.6;65200;;;;
2022/05/08 07:09:02;;;;;;;14.8;18.1;;;;;;;-133;82.4;65210;;;;
2022/05/08 07:20:03;;;;;;;14.8;18.1;;;;;;;-133;81.5;65200;;;;
2022/05/08 07:31:03;;;;;;;14.6;18.3;;;;;;;-133;78.7;65210;;;;
2022/05/08 07:41:02;;;;;;;14.6;18.3;;;;;;;-133;78.1;65210;;;;
2022/05/08 07:51:02;;;;;;;14.6;18.3;;;;;;;-133;77.8;65200;;;;
2022/05/08 08:02:03;;;;;;;12.8;16.8;;;;;;;-133;77.7;65210;;;;
2022/05/08 08:12:02;;;;;;;12.8;16.8;;;;;;;-133;79.4;65210;;;;
2022/05/08 08:22:03;;;;;;;12.8;16.8;;;;;;;-133;77.5;65210;;;;
2022/05/08 08:33:02;;;;;;;11.8;14.6;;;;;;;-133;73.9;65210;;;;
2022/05/08 08:55:04;;;;;;;11.8;14.6;;;;;;;-133;71.7;65210;;;;
2022/05/08 09:06:03;;;;;;;10.7;12.8;;;;;;;-133;69.6;65210;;;;
2022/05/08 09:16:02;;;;;;;10.7;12.8;;;;;;;-133;67.1;65210;;;;
2022/05/08 09:27:02;;;;;;;10.7;12.8;;;;;;;-133;68.1;65210;;;;
2022/05/08 09:37:02;;;;;;;8.7;10.2;;;;;;;-133;64.4;65210;;;;
2022/05/08 09:47:02;;;;;;;8.7;10.2;;;;;;;-133;60.5;65210;;;;
2022/05/08 09:58:02;;;;;;;7.8;12.5;;;;;;;-133;60.7;65210;;;;
2022/05/08 10:08:02;;;;;;;7.8;12.5;;;;;;;-133;61.1;65210;;;;
2022/05/08 10:19:02;;;;;;;7.8;12.5;;;;;;;-133;60.2;65210;;;;
2022/05/08 10:29:02;;;;;;;6.7;9.7;;;;;;;-133;59;65200;;;;
2022/05/08 10:40:02;;;;;;;6.7;9.7;;;;;;;-133;58.9;65210;;;;
2022/05/08 10:50:02;;;;;;;6.7;9.7;;;;;;;-133;57.8;65210;;;;
2022/05/08 11:01:03;;;;;;;6.9;9.5;;;;;;;-133;56.8;65210;;;;
2022/05/08 11:11:02;;;;;;;6.9;9.5;;;;;;;-133;55.2;65210;;;;
2022/05/08 11:22:02;;;;;;;6.9;9.5;;;;;;;-133;54.4;65210;;;;
2022/05/08 11:42:03;;;;;;;5.5;7.8;;;;;;;-133;54;65210;;;;
2022/05/08 11:53:02;;;;;;;5.5;7.8;;;;;;;-133;55;65210;;;;
2022/05/08 12:03:03;;;;;;;4.9;6.8;;;;;;;-133;52.8;65210;;;;
2022/05/08 12:14:02;;;;;;;4.9;6.8;;;;;;;-133;53.9;65210;;;;
2022/05/08 12:24:02;;;;;;;4.9;6.8;;;;;;;-133;49.8;65200;;;;
2022/05/08 12:34:05;;;;;;;5.9;8.5;;;;;;;-133;50.8;65210;;;;
2022/05/08 12:45:02;;;;;;;5.9;8.5;;;;;;;-133;45.9;65210;;;;
2022/05/08 12:55:02;;;;;;;5.9;8.5;;;;;;;-133;47;65210;;;;
2022/05/08 13:05:02;;;;;;;4.6;6.8;;;;;;;-133;50.1;65210;;;;
2022/05/08 13:16:02;;;;;;;4.6;6.8;;;;;;;-133;53.1;65200;;;;
2022/05/08 13:26:02;;;;;;;4.6;6.8;;;;;;;-133;53.6;65210;;;;
2022/05/08 13:36:02;;;;;;;5.3;7.7;;;;;;;-133;53.6;65210;;;;
2022/05/08 13:47:05;;;;;;;5.3;7.7;;;;;;;-133;53.5;65210;;;;
2022/05/08 13:57:03;;;;;;;5.3;7.7;;;;;;;-133;53.1;65210;;;;
2022/05/08 14:08:03;;;;;;;5.2;7.5;;;;;;;-133;51.4;65210;;;;
2022/05/08 14:18:03;;;;;;;5.2;7.5;;;;;;;-133;50.9;65210;;;;
2022/05/08 14:29:02;;;;;;;5.1;7.5;;;;;;;-133;48.8;65220;;;;
2022/05/08 14:40:02;;;;;;;5.1;7.5;;;;;;;-133;50.9;65210;;;;
2022/05/08 14:50:02;;;;;;;5.1;7.5;;;;;;;-133;49.3;65210;;;;
2022/05/08 15:01:02;;;;;;;5.5;8;;;;;;;-133;49.9;65210;;;;
2022/05/08 15:12:02;;;;;;;5.5;8;;;;;;;-133;44.1;65210;;;;
2022/05/08 15:22:03;;;;;;;5.5;8;;;;;;;-133;45.6;65210;;;;
2022/05/08 15:32:06;;;;;;;5.1;7.1;;;;;;;-133;46.3;65210;;;;
2022/05/08 15:43:04;;;;;;;5.1;7.1;;;;;;;-133;49.7;65220;;;;
2022/05/08 15:53:03;;;;;;;5.1;7.1;;;;;;;-133;52.3;65220;;;;
2022/05/08 16:04:05;;;;;;;5.6;11.2;;;;;;;-133;52.6;65220;;;;
2022/05/08 16:24:03;;;;;;;5.6;11.2;;;;;;;-133;52.8;65220;;;;
2022/05/08 16:35:03;;;;;;;6.2;8.5;;;;;;;-133;54.5;65220;;;;
2022/05/08 16:46:02;;;;;;;6.2;8.5;;;;;;;-133;55;65220;;;;
2022/05/08 16:56:03;;;;;;;6.2;8.5;;;;;;;-133;54.7;65220;;;;
2022/05/08 17:06:03;;;;;;;5.9;10.6;;;;;;;-133;54.7;65220;;;;
2022/05/08 17:17:03;;;;;;;5.9;10.6;;;;;;;-133;52.5;65220;;;;
2022/05/08 17:29:07;;;;;;;5.9;10.6;;;;;;;-133;51.9;65220;;;;
2022/05/08 17:38:03;;;;;;;5.4;7.3;;;;;;;-133;54.1;65220;;;;
2022/05/08 17:49:03;;;;;;;5.4;7.3;;;;;;;-133;57.5;65220;;;;
2022/05/08 17:59:03;;;;;;;5.3;8.5;;;;;;;-133;59.9;65220;;;;
2022/05/08 18:10:04;;;;;;;5.3;8.5;;;;;;;-133;64.3;65230;;;;
2022/05/08 18:21:03;;;;;;;5.3;8.5;;;;;;;-133;68.3;65230;;;;
2022/05/08 18:32:03;;;;;;;5.5;9.7;;;;;;;-133;72.7;65230;;;;
2022/05/08 18:43:04;;;;;;;5.5;9.7;;;;;;;-133;74.1;65230;;;;
2022/05/08 18:53:03;;;;;;;5.5;9.7;;;;;;;-133;72.2;65230;;;;
2022/05/08 19:03:03;;;;;;;4.6;7;;;;;;;-133;72.6;65230;;;;
2022/05/08 19:13:03;;;;;;;4.6;7;;;;;;;-133;73.9;65230;;;;
2022/05/08 19:23:03;;;;;;;4.6;7;;;;;;;-133;75.1;65230;;;;
2022/05/08 19:43:03;;;;;;;3.5;7.5;;;;;;;-133;76.1;65230;;;;
2022/05/08 19:54:05;;;;;;;3.5;7.5;;;;;;;-133;75;65230;;;;
2022/05/08 20:04:03;;;;;;;3.4;6.6;;;;;;;-133;75.9;65230;;;;
2022/05/08 20:15:03;;;;;;;3.4;6.6;;;;;;;-133;77.5;65230;;;;
2022/05/08 20:25:03;;;;;;;3.4;6.6;;;;;;;-133;80.2;65230;;;;
2022/05/08 20:36:03;;;;;;;3.9;5.4;;;;;;;-133;81.1;65230;;;;
2022/05/08 20:47:04;;;;;;;3.9;5.4;;;;;;;-133;82.2;65230;;;;
2022/05/08 20:58:03;;;;;;;3.9;5.4;;;;;;;-133;82.3;65230;;;;
2022/05/08 21:08:03;;;;;;;4.8;7.6;;;;;;;-133;82.3;65220;;;;
2022/05/08 21:18:03;;;;;;;4.8;7.6;;;;;;;-133;83.1;65220;;;;
2022/05/08 21:28:03;;;;;;;4.8;7.6;;;;;;;-133;82.9;65230;;;;
2022/05/08 21:39:03;;;;;;;5.4;9.1;;;;;;;-133;83.4;65220;;;;
2022/05/08 21:50:03;;;;;;;5.4;9.1;;;;;;;-133;85.9;65220;;;;
2022/05/08 22:00:03;;;;;;;6.4;9.6;;;;;;;-133;85.8;65230;;;;
2022/05/08 22:11:03;;;;;;;6.4;9.6;;;;;;;-133;86.4;65230;;;;
2022/05/08 22:21:03;;;;;;;6.4;9.6;;;;;;;-133;86.8;65220;;;;
2022/05/08 22:32:03;;;;;;;5.5;8.7;;;;;;;-133;86.7;65220;;;;
2022/05/08 22:42:03;;;;;;;5.5;8.7;;;;;;;-133;86.7;65220;;;;
2022/05/08 22:53:03;;;;;;;5.5;8.7;;;;;;;-133;86.5;65220;;;;
2022/05/08 23:03:03;;;;;;;5.8;8.1;;;;;;;-133;87;65220;;;;
2022/05/08 23:13:03;;;;;;;5.8;8.1;;;;;;;-133;86.8;65220;;;;
2022/05/08 23:24:03;;;;;;;5.8;8.1;;;;;;;-133;85.8;65220;;;;
2022/05/08 23:34:03;;;;;;;5.8;7.7;;;;;;;-133;86.7;65220;;;;
2022/05/08 23:45:03;;;;;;;5.8;7.7;;;;;;;-133;87.1;65220;;;;
2022/05/08 23:55:03;;;;;;;5.8;7.7;;;;;;;-133;89.3;65220;;;;
